createdAt,value
2022-11-06T00:00:39.135Z,16.15
2022-11-06T00:03:07.154Z,13.40
2022-11-06T00:05:53.876Z,17.05
2022-11-06T00:08:43.712Z,15.75
2022-11-06T00:11:15.755Z,19.85
2022-11-06T00:13:43.522Z,14.73
2022-11-06T00:16:12.070Z,15.07
2022-11-06T00:18:40.120Z,16.30
2022-11-06T00:21:14.926Z,15.15
2022-11-06T00:23:42.856Z,13.05
2022-11-06T00:26:11.664Z,13.60
2022-11-06T00:28:39.734Z,16.95
2022-11-06T00:31:08.989Z,15.18
2022-11-06T00:33:36.698Z,13.70
2022-11-06T00:36:05.210Z,13.40
2022-11-06T00:38:32.956Z,14.98
2022-11-06T00:41:04.354Z,10.45
2022-11-06T00:43:32.970Z,13.52
2022-11-06T00:46:03.785Z,14.45
2022-11-06T00:48:31.428Z,14.63
2022-11-06T00:51:11.476Z,12.75
2022-11-06T00:53:39.166Z,15.73
2022-11-06T00:56:11.051Z,13.98
2022-11-06T00:58:38.874Z,11.25
2022-11-06T01:01:16.859Z,16.55
2022-11-06T01:03:45.319Z,11.95
2022-11-06T01:06:14.677Z,11.32
2022-11-06T01:08:42.556Z,13.82
2022-11-06T01:11:11.949Z,12.88
2022-11-06T01:13:39.953Z,11.10
2022-11-06T01:16:09.606Z,10.27
2022-11-06T01:18:38.078Z,13.38
2022-11-06T01:21:06.863Z,11.90
2022-11-06T01:23:34.686Z,9.85
2022-11-06T01:26:03.206Z,14.93
2022-11-06T01:28:30.982Z,13.55
2022-11-06T01:31:02.936Z,13.82
2022-11-06T01:33:30.488Z,14.88
2022-11-06T01:35:58.064Z,16.27
2022-11-06T01:38:25.798Z,13.27
2022-11-06T01:40:53.740Z,14.40
2022-11-06T01:43:25.539Z,14.75
2022-11-06T01:45:54.308Z,14.13
2022-11-06T01:48:23.616Z,13.65
2022-11-06T01:50:54.698Z,16.65
2022-11-06T01:53:23.367Z,13.05
2022-11-06T01:55:53.014Z,13.38
2022-11-06T01:58:21.369Z,16.25
2022-11-06T02:00:49.664Z,13.90
2022-11-06T02:03:17.709Z,15.00
2022-11-06T02:05:45.768Z,18.95
2022-11-06T02:08:15.114Z,23.80
2022-11-06T02:10:43.519Z,21.50
2022-11-06T02:13:16.910Z,21.67
2022-11-06T02:15:52.821Z,23.33
2022-11-06T02:18:39.394Z,28.33
2022-11-06T02:21:19.194Z,27.55
2022-11-06T02:23:46.812Z,26.70
2022-11-06T02:26:17.377Z,23.00
2022-11-06T02:28:50.836Z,23.38
2022-11-06T02:31:21.355Z,25.23
2022-11-06T02:33:52.668Z,21.73
2022-11-06T02:36:23.644Z,24.48
2022-11-06T02:38:55.778Z,22.10
2022-11-06T02:41:25.415Z,24.05
2022-11-06T02:43:55.398Z,24.38
2022-11-06T02:46:25.915Z,22.33
2022-11-06T02:48:59.708Z,14.90
2022-11-06T02:51:29.245Z,16.38
2022-11-06T02:53:59.564Z,16.88
2022-11-06T02:56:29.732Z,15.93
2022-11-06T02:59:03.846Z,13.90
2022-11-06T03:01:34.441Z,14.88
2022-11-06T03:04:04.695Z,12.13
2022-11-06T03:06:45.314Z,15.38
2022-11-06T03:09:19.288Z,11.63
2022-11-06T03:11:52.237Z,14.50
2022-11-06T03:14:27.749Z,14.70
2022-11-06T03:16:58.743Z,14.90
2022-11-06T03:19:28.885Z,12.68
2022-11-06T03:22:02.535Z,15.60
2022-11-06T03:24:35.618Z,12.23
2022-11-06T03:27:08.436Z,13.88
2022-11-06T03:29:44.895Z,12.13
2022-11-06T03:32:27.384Z,14.50
2022-11-06T03:34:58.134Z,15.02
2022-11-06T03:37:28.711Z,12.75
2022-11-06T03:39:59.403Z,14.65
2022-11-06T03:42:29.655Z,11.45
2022-11-06T03:44:59.065Z,12.43
2022-11-06T03:47:29.678Z,13.63
2022-11-06T03:50:05.983Z,12.05
2022-11-06T03:52:36.029Z,10.88
2022-11-06T03:55:10.381Z,14.15
2022-11-06T03:57:41.574Z,14.02
2022-11-06T04:02:42.522Z,15.20
2022-11-06T04:05:14.260Z,14.02
2022-11-06T04:08:12.944Z,11.70
2022-11-06T04:11:01.670Z,12.93
2022-11-06T04:13:49.586Z,12.77
2022-11-06T04:16:17.995Z,17.70
2022-11-06T04:18:45.634Z,12.18
2022-11-06T04:21:22.732Z,12.55
2022-11-06T04:24:10.225Z,15.85
2022-11-06T04:26:43.755Z,16.17
2022-11-06T04:29:33.786Z,14.20
2022-11-06T04:32:12.314Z,15.02
2022-11-06T04:34:39.843Z,14.98
2022-11-06T04:37:09.743Z,15.55
2022-11-06T04:39:56.117Z,17.48
2022-11-06T04:42:26.767Z,13.23
2022-11-06T04:44:57.689Z,15.77
2022-11-06T04:47:25.928Z,16.15
2022-11-06T04:49:54.427Z,18.30
2022-11-06T04:52:26.397Z,19.65
2022-11-06T04:54:54.624Z,16.00
2022-11-06T04:57:25.036Z,17.48
2022-11-06T04:59:52.923Z,17.25
2022-11-06T05:02:20.709Z,16.73
2022-11-06T05:04:48.323Z,16.75
2022-11-06T05:07:16.463Z,16.08
2022-11-06T05:09:45.645Z,16.15
2022-11-06T05:12:13.589Z,17.30
2022-11-06T05:14:41.195Z,17.25
2022-11-06T05:17:08.725Z,19.67
2022-11-06T05:19:36.264Z,19.27
2022-11-06T05:22:22.641Z,20.77
2022-11-06T05:24:50.222Z,18.40
2022-11-06T05:27:17.965Z,16.95
2022-11-06T05:29:45.540Z,20.92
2022-11-06T05:32:13.227Z,22.98
2022-11-06T05:34:42.319Z,22.80
2022-11-06T05:37:09.860Z,19.15
2022-11-06T05:39:41.574Z,18.38
2022-11-06T05:42:09.753Z,17.52
2022-11-06T05:44:37.760Z,19.40
2022-11-06T05:47:05.330Z,24.60
2022-11-06T05:49:33.060Z,17.38
2022-11-06T05:52:00.618Z,18.05
2022-11-06T05:54:28.333Z,20.52
2022-11-06T05:56:56.083Z,17.52
2022-11-06T05:59:23.603Z,17.75
2022-11-06T06:01:51.368Z,17.75
2022-11-06T06:04:19.059Z,15.68
2022-11-06T06:06:46.688Z,17.63
2022-11-06T06:09:14.296Z,15.10
2022-11-06T06:11:41.890Z,15.95
2022-11-06T06:14:09.469Z,17.08
2022-11-06T06:16:37.335Z,14.70
2022-11-06T06:19:04.937Z,15.45
2022-11-06T06:21:32.468Z,13.65
2022-11-06T06:24:00.100Z,14.57
2022-11-06T06:26:27.615Z,13.05
2022-11-06T06:28:55.147Z,13.52
2022-11-06T06:31:23.018Z,14.68
2022-11-06T06:33:50.749Z,12.27
2022-11-06T06:36:18.376Z,15.18
2022-11-06T06:38:46.051Z,13.25
2022-11-06T06:41:13.623Z,13.15
2022-11-06T06:43:41.257Z,14.52
2022-11-06T06:46:09.507Z,13.57
2022-11-06T06:48:37.686Z,11.98
2022-11-06T06:51:06.354Z,13.27
2022-11-06T06:53:36.115Z,12.40
2022-11-06T06:56:04.080Z,13.25
2022-11-06T06:58:31.787Z,14.85
2022-11-06T07:01:00.414Z,12.70
2022-11-06T07:03:28.228Z,14.20
2022-11-06T07:05:56.077Z,13.48
2022-11-06T07:08:23.709Z,12.48
2022-11-06T07:10:51.272Z,14.00
2022-11-06T07:13:18.876Z,15.00
2022-11-06T07:15:46.501Z,14.50
2022-11-06T07:18:14.452Z,15.63
2022-11-06T07:20:42.168Z,13.15
2022-11-06T07:23:09.800Z,12.82
2022-11-06T07:25:37.696Z,15.88
2022-11-06T07:28:06.185Z,14.02
2022-11-06T07:30:34.488Z,13.52
2022-11-06T07:33:03.246Z,12.77
2022-11-06T07:35:31.357Z,14.68
2022-11-06T07:37:58.863Z,14.38
2022-11-06T07:40:26.451Z,12.35
2022-11-06T07:42:53.966Z,12.55
2022-11-06T07:45:21.664Z,13.43
2022-11-06T07:47:49.358Z,11.30
2022-11-06T07:50:16.994Z,10.27
2022-11-06T07:52:44.582Z,10.73
2022-11-06T07:55:12.135Z,10.32
2022-11-06T07:57:47.361Z,8.10
2022-11-06T08:00:15.534Z,11.07
2022-11-06T08:02:52.381Z,8.27
2022-11-06T08:05:20.692Z,9.05
2022-11-06T08:13:12.465Z,7.40
2022-11-06T08:15:41.543Z,8.15
2022-11-06T08:18:10.221Z,8.65
2022-11-06T08:20:38.871Z,10.13
2022-11-06T08:23:07.415Z,10.40
2022-11-06T08:25:39.377Z,8.27
2022-11-06T08:28:07.146Z,8.73
2022-11-06T08:30:35.612Z,10.30
2022-11-06T08:33:04.542Z,9.40
2022-11-06T08:35:32.635Z,9.80
2022-11-06T08:38:00.304Z,9.95
2022-11-06T08:40:31.403Z,10.35
2022-11-06T08:43:09.450Z,9.48
2022-11-06T08:45:43.706Z,9.02
2022-11-06T08:48:12.709Z,12.07
2022-11-06T08:50:41.676Z,9.93
2022-11-06T08:53:09.717Z,10.43
2022-11-06T08:55:40.227Z,9.65
2022-11-06T08:58:08.324Z,11.57
2022-11-06T09:00:36.065Z,8.60
2022-11-06T09:03:07.734Z,7.78
2022-11-06T09:05:36.394Z,9.25
2022-11-06T09:08:04.217Z,8.75
2022-11-06T09:16:05.503Z,8.50
2022-11-06T09:18:41.000Z,7.95
2022-11-06T09:21:09.374Z,9.35
2022-11-06T09:23:37.057Z,8.65
2022-11-06T09:28:54.277Z,9.27
2022-11-06T09:31:21.994Z,8.95
2022-11-06T09:36:43.593Z,9.38
2022-11-06T09:39:19.184Z,8.80
2022-11-06T09:44:48.244Z,9.73
2022-11-06T09:47:24.369Z,7.57
2022-11-06T09:55:40.407Z,9.43
2022-11-06T10:04:08.214Z,7.50
2022-11-06T10:06:51.741Z,7.57
2022-11-06T10:09:19.934Z,8.30
2022-11-06T10:12:00.073Z,7.13
2022-11-06T10:14:50.048Z,7.05
2022-11-06T10:17:37.467Z,6.03
2022-11-06T10:20:13.005Z,6.72
2022-11-06T10:22:43.405Z,6.10
2022-11-06T10:31:10.306Z,5.90
2022-11-06T10:33:54.954Z,5.78
2022-11-06T10:36:30.105Z,6.00
2022-11-06T10:39:00.178Z,5.82
2022-11-06T10:41:32.917Z,5.60
2022-11-06T10:44:05.318Z,5.85
2022-11-06T10:49:39.285Z,6.78
2022-11-06T10:58:04.719Z,6.28
2022-11-06T11:00:40.112Z,5.30
2022-11-06T11:03:16.838Z,6.38
2022-11-06T11:08:44.898Z,5.68
2022-11-06T11:11:16.418Z,6.05
2022-11-06T11:13:47.097Z,6.15
2022-11-06T11:19:25.920Z,5.35
2022-11-06T11:24:58.835Z,6.90
2022-11-06T11:27:30.387Z,7.70
2022-11-06T11:35:35.685Z,8.02
2022-11-06T11:38:24.078Z,4.55
2022-11-06T11:40:55.605Z,5.70
2022-11-06T11:46:23.091Z,4.63
2022-11-06T11:54:37.950Z,4.95
2022-11-06T11:57:18.957Z,4.20
2022-11-06T12:05:26.450Z,7.90
2022-11-06T12:07:57.759Z,6.65
2022-11-06T12:10:33.278Z,5.75
2022-11-06T12:16:06.139Z,5.43
2022-11-06T12:18:35.810Z,5.10
2022-11-06T12:26:57.453Z,4.65
2022-11-06T12:29:45.515Z,5.72
2022-11-06T12:35:06.480Z,5.22
2022-11-06T12:37:45.413Z,5.30
2022-11-06T12:40:28.559Z,5.97
2022-11-06T12:51:11.041Z,6.85
2022-11-06T12:53:50.772Z,6.85
2022-11-06T12:59:38.639Z,5.30
2022-11-06T13:05:34.486Z,4.38
2022-11-06T13:08:22.468Z,5.57
2022-11-06T13:11:02.816Z,6.53
2022-11-06T13:13:43.119Z,4.57
2022-11-06T13:16:13.700Z,5.00
2022-11-06T13:18:53.457Z,4.70
2022-11-06T13:21:30.054Z,4.40
2022-11-06T13:24:03.503Z,4.68
2022-11-06T13:26:37.994Z,3.72
2022-11-06T13:29:11.596Z,5.93
2022-11-06T13:31:44.140Z,3.92
2022-11-06T13:34:18.628Z,4.57
2022-11-06T13:36:55.132Z,3.60
2022-11-06T13:51:12.307Z,4.68
2022-11-06T13:53:53.303Z,3.47
2022-11-06T13:56:48.013Z,4.93
2022-11-06T14:02:02.595Z,5.60
2022-11-06T14:04:30.225Z,4.45
2022-11-06T14:07:00.020Z,4.60
2022-11-06T14:09:28.783Z,4.32
2022-11-06T14:11:57.915Z,7.95
2022-11-06T14:14:26.869Z,11.02
2022-11-06T14:17:13.341Z,5.50
2022-11-06T14:19:46.323Z,5.05
2022-11-06T14:22:31.592Z,6.88
2022-11-06T14:25:01.963Z,7.38
2022-11-06T14:27:29.834Z,10.65
2022-11-06T14:30:05.434Z,5.05
2022-11-06T14:32:37.578Z,6.40
2022-11-06T14:35:23.980Z,5.75
2022-11-06T14:37:51.585Z,5.25
2022-11-06T14:40:31.995Z,4.07
2022-11-06T14:42:59.914Z,4.43
2022-11-06T14:45:28.670Z,4.43
2022-11-06T14:47:56.903Z,4.20
2022-11-06T14:50:35.371Z,5.13
2022-11-06T14:53:04.510Z,4.90
2022-11-06T14:55:46.464Z,6.45
2022-11-06T14:58:23.117Z,6.10
2022-11-06T15:00:52.786Z,5.93
2022-11-06T15:03:26.500Z,5.78
2022-11-06T15:05:58.019Z,6.97
2022-11-06T15:08:44.475Z,5.53
2022-11-06T15:11:30.383Z,5.28
2022-11-06T15:13:58.001Z,5.72
2022-11-06T15:16:28.559Z,6.10
2022-11-06T15:18:56.324Z,5.28
2022-11-06T15:21:25.640Z,5.00
2022-11-06T15:24:25.741Z,4.80
2022-11-06T15:26:54.823Z,4.75
2022-11-06T15:29:29.749Z,4.90
2022-11-06T15:32:06.780Z,7.32
2022-11-06T15:34:38.111Z,6.22
2022-11-06T15:37:22.357Z,5.30
2022-11-06T15:40:00.311Z,7.55
2022-11-06T15:42:30.154Z,7.30
2022-11-06T15:45:12.875Z,8.27
2022-11-06T15:47:40.604Z,7.78
2022-11-06T15:50:14.453Z,5.25
2022-11-06T15:52:43.349Z,5.72
2022-11-06T15:55:23.348Z,5.15
2022-11-06T15:57:51.924Z,6.10
2022-11-06T16:00:25.401Z,6.95
2022-11-06T16:02:59.287Z,5.53
2022-11-06T16:05:28.665Z,6.53
2022-11-06T16:07:57.479Z,5.55
2022-11-06T16:10:26.611Z,7.40
2022-11-06T16:12:55.318Z,5.38
2022-11-06T16:15:42.558Z,7.45
2022-11-06T16:18:24.469Z,6.72
2022-11-06T16:20:54.582Z,5.65
2022-11-06T16:23:33.428Z,3.90
2022-11-06T16:26:05.965Z,6.65
2022-11-06T16:28:34.242Z,5.82
2022-11-06T16:31:05.732Z,6.45
2022-11-06T16:33:33.839Z,7.35
2022-11-06T16:36:09.017Z,6.10
2022-11-06T16:38:41.523Z,5.65
2022-11-06T16:41:11.115Z,7.05
2022-11-06T16:43:38.941Z,6.60
2022-11-06T16:46:15.359Z,8.85
2022-11-06T16:48:48.278Z,7.18
2022-11-06T16:51:31.051Z,7.15
2022-11-06T16:54:05.169Z,8.30
2022-11-06T16:56:45.501Z,6.70
2022-11-06T16:59:29.452Z,6.85
2022-11-06T17:02:08.606Z,6.80
2022-11-06T17:04:37.524Z,6.82
2022-11-06T17:07:07.124Z,7.80
2022-11-06T17:09:37.720Z,7.18
2022-11-06T17:12:18.473Z,8.80
2022-11-06T17:17:40.146Z,7.53
2022-11-06T17:20:17.311Z,7.28
2022-11-06T17:22:54.326Z,6.85
2022-11-06T17:28:25.061Z,7.15
2022-11-06T17:30:52.716Z,7.80
2022-11-06T17:33:29.977Z,8.88
2022-11-06T17:36:04.942Z,7.30
2022-11-06T17:38:40.825Z,5.95
2022-11-06T17:43:55.296Z,6.97
2022-11-06T17:46:24.837Z,7.05
2022-11-06T17:52:01.290Z,7.43
2022-11-06T17:54:46.372Z,8.30
2022-11-06T17:57:31.235Z,7.90
2022-11-06T18:00:05.520Z,8.75
2022-11-06T18:03:01.043Z,9.50
2022-11-06T18:05:39.821Z,7.88
2022-11-06T18:11:08.845Z,5.90
2022-11-06T18:16:55.623Z,6.20
2022-11-06T18:19:26.205Z,7.78
2022-11-06T18:22:01.125Z,8.23
2022-11-06T18:24:40.331Z,10.65
2022-11-06T18:27:08.139Z,9.35
2022-11-06T18:29:35.806Z,8.82
2022-11-06T18:32:05.628Z,8.38
2022-11-06T18:34:33.382Z,8.70
2022-11-06T18:37:01.030Z,8.48
2022-11-06T18:39:32.101Z,10.38
2022-11-06T18:44:42.336Z,9.77
2022-11-06T18:47:15.860Z,10.98
2022-11-06T18:49:58.011Z,10.70
2022-11-06T18:52:55.862Z,8.27
2022-11-06T18:55:22.968Z,9.23
2022-11-06T18:57:50.826Z,9.00
2022-11-06T19:00:23.332Z,8.38
2022-11-06T19:02:51.774Z,9.18
2022-11-06T19:05:37.463Z,9.23
2022-11-06T19:08:08.467Z,8.88
2022-11-06T19:13:05.776Z,9.55
2022-11-06T19:15:36.337Z,8.75
2022-11-06T19:18:13.990Z,14.00
2022-11-06T19:26:36.728Z,10.40
2022-11-06T19:29:21.814Z,9.20
2022-11-06T19:31:49.467Z,9.35
2022-11-06T19:34:17.190Z,9.75
2022-11-06T19:36:49.856Z,11.02
2022-11-06T19:39:18.365Z,10.00
2022-11-06T19:41:47.059Z,9.50
2022-11-06T19:44:14.706Z,11.27
2022-11-06T19:46:42.441Z,11.10
2022-11-06T19:49:20.146Z,9.38
2022-11-06T19:51:55.620Z,9.15
2022-11-06T19:54:24.729Z,12.23
2022-11-06T19:57:28.621Z,10.32
2022-11-06T19:59:45.409Z,8.65
2022-11-06T20:02:24.937Z,9.45
2022-11-06T20:04:56.146Z,9.73
2022-11-06T20:07:32.546Z,8.70
2022-11-06T20:10:14.313Z,9.13
2022-11-06T20:12:41.861Z,7.95
2022-11-06T20:15:09.610Z,8.00
2022-11-06T20:17:40.318Z,9.93
2022-11-06T20:20:09.568Z,8.32
2022-11-06T20:22:37.312Z,6.88
2022-11-06T20:25:05.175Z,8.23
2022-11-06T20:27:32.807Z,6.72
2022-11-06T20:30:00.472Z,7.63
2022-11-06T20:32:28.797Z,16.00
2022-11-06T20:34:56.459Z,9.93
2022-11-06T20:37:24.123Z,8.60
2022-11-06T20:39:52.104Z,9.07
2022-11-06T20:42:19.937Z,9.15
2022-11-06T20:44:47.532Z,9.98
2022-11-06T20:47:15.259Z,8.25
2022-11-06T20:49:42.989Z,7.47
2022-11-06T20:52:14.465Z,7.60
2022-11-06T20:54:47.253Z,9.35
2022-11-06T20:57:16.621Z,8.57
2022-11-06T20:59:44.284Z,8.48
2022-11-06T21:02:12.095Z,8.15
2022-11-06T21:04:40.073Z,9.55
2022-11-06T21:07:07.747Z,10.18
2022-11-06T21:09:35.532Z,10.35
2022-11-06T21:12:08.037Z,8.45
2022-11-06T21:14:37.983Z,8.25
2022-11-06T21:17:10.975Z,8.07
2022-11-06T21:19:39.106Z,8.05
2022-11-06T21:22:06.874Z,8.32
2022-11-06T21:24:36.878Z,8.57
2022-11-06T21:27:05.721Z,8.55
2022-11-06T21:29:33.378Z,10.15
2022-11-06T21:32:00.912Z,11.95
2022-11-06T21:37:13.895Z,8.00
2022-11-06T21:39:41.857Z,11.27
2022-11-06T21:42:09.624Z,9.50
2022-11-06T21:44:37.396Z,10.15
2022-11-06T21:47:04.920Z,8.43
2022-11-06T21:49:33.329Z,10.55
2022-11-06T21:52:29.588Z,10.95
2022-11-06T21:58:20.704Z,11.93
2022-11-06T22:01:27.516Z,10.73
2022-11-06T22:11:26.388Z,10.85
2022-11-06T22:14:04.914Z,7.95
2022-11-06T22:17:08.193Z,10.50
2022-11-06T22:19:35.803Z,16.27
2022-11-06T22:22:03.296Z,13.70
2022-11-06T22:24:34.304Z,14.45
2022-11-06T22:27:01.888Z,13.60
2022-11-06T22:29:30.450Z,8.75
2022-11-06T22:31:58.303Z,8.73
2022-11-06T22:34:28.944Z,8.55
2022-11-06T22:36:56.565Z,8.30
2022-11-06T22:39:24.104Z,9.30
2022-11-06T22:41:51.660Z,10.07
2022-11-06T22:44:19.222Z,8.48
2022-11-06T22:46:46.736Z,8.57
2022-11-06T22:49:14.250Z,8.38
2022-11-06T22:51:41.883Z,7.30
2022-11-06T22:54:09.411Z,8.55
2022-11-06T22:56:37.001Z,15.07
2022-11-06T22:59:07.625Z,10.45
2022-11-06T23:01:41.516Z,12.80
2022-11-06T23:04:14.569Z,11.65
2022-11-06T23:06:42.524Z,9.90
2022-11-06T23:09:10.023Z,11.20
2022-11-06T23:11:37.585Z,13.00
2022-11-06T23:14:08.879Z,13.48
2022-11-06T23:16:55.624Z,11.20
2022-11-06T23:19:23.256Z,9.32
2022-11-06T23:21:50.951Z,10.15
2022-11-06T23:24:18.642Z,11.38
2022-11-06T23:26:47.209Z,8.38
2022-11-06T23:29:14.720Z,10.98
2022-11-06T23:31:42.202Z,8.18
2022-11-06T23:34:09.716Z,9.27
2022-11-06T23:36:37.140Z,8.20
2022-11-06T23:39:05.323Z,9.90
2022-11-06T23:41:45.716Z,9.68
2022-11-06T23:44:33.528Z,9.55
2022-11-06T23:47:01.260Z,8.95
2022-11-06T23:49:28.964Z,11.30
2022-11-06T23:51:56.427Z,11.77
2022-11-06T23:54:25.175Z,11.70
2022-11-06T23:56:52.655Z,9.80
2022-11-06T23:59:20.216Z,9.73
